Lundu, Malaysia
Current Conditions -  °F | °C
As of 7:30 PM on Thursday 27 Nov 2014 (Local Time) from WBGG Reporting Station
Light Rain Light Rain  
Wind Chill: 75°   Ceiling: 15000
Heat Index: 75°   Visibility: 4mi
Dew Point: 73°   Wind: 9mph
Humidity: 94%   Direction: 230°SW
Pressure: 29.8"   Gusts: NA
Location:  1.68°N, 109.85°E
Report Text: WBGG 271130Z 23008KT 180V270 6000 -RA FEW001 SCT020 BKN150 24/23 Q1009 NOSIG
Loading
Personal Weather Stations






























Interactive Weather Map New forecast layout! Learn more

10-Day Weather Forecast

Advertisements
Track Severe Weather on mobile